createdAt,value
2023-03-04T00:00:56.357Z,102022.21
2023-03-04T00:03:24.246Z,102023.85
2023-03-04T00:05:52.141Z,102016.20
2023-03-04T00:08:19.862Z,102025.55
2023-03-04T00:10:47.704Z,102026.40
2023-03-04T00:13:15.477Z,102030.48
2023-03-04T00:15:43.227Z,102026.50
2023-03-04T00:18:10.921Z,102026.50
2023-03-04T00:20:38.558Z,102025.29
2023-03-04T00:23:06.229Z,102025.32
2023-03-04T00:25:34.763Z,102024.54
2023-03-04T00:28:02.609Z,102031.83
2023-03-04T00:30:30.306Z,102029.02
2023-03-04T00:32:58.119Z,102023.78
2023-03-04T00:35:25.750Z,102028.27
2023-03-04T00:37:53.495Z,102028.27
2023-03-04T00:40:21.414Z,102025.02
2023-03-04T00:42:49.101Z,102022.61
2023-03-04T00:45:16.888Z,102026.70
2023-03-04T00:47:44.556Z,102034.80
2023-03-04T00:50:12.747Z,102034.41
2023-03-04T00:52:40.438Z,102031.21
2023-03-04T00:55:09.212Z,102031.24
2023-03-04T00:57:36.978Z,102038.92
2023-03-04T01:00:06.138Z,102032.88
2023-03-04T01:02:33.848Z,102024.83
2023-03-04T01:05:01.497Z,102027.71
2023-03-04T01:07:29.174Z,102036.21
2023-03-04T01:09:56.788Z,102036.67
2023-03-04T01:12:24.462Z,102033.82
2023-03-04T01:14:52.144Z,102029.41
2023-03-04T01:17:19.891Z,102019.73
2023-03-04T01:19:47.596Z,102025.81
2023-03-04T01:22:16.315Z,102016.55
2023-03-04T01:24:44.462Z,102025.02
2023-03-04T01:27:12.354Z,102015.71
2023-03-04T01:29:40.020Z,102015.71
2023-03-04T01:32:07.795Z,102014.50
2023-03-04T01:34:35.610Z,102014.95
2023-03-04T01:37:03.482Z,102017.02
2023-03-04T01:39:31.233Z,102009.73
2023-03-04T01:41:59.351Z,102019.01
2023-03-04T01:44:27.418Z,102009.76
2023-03-04T01:46:56.773Z,102017.48
2023-03-04T01:49:24.843Z,102004.10
2023-03-04T01:51:55.694Z,102009.76
2023-03-04T01:54:24.318Z,102000.50
2023-03-04T01:56:53.462Z,102005.77
2023-03-04T01:59:22.810Z,102005.77
2023-03-04T02:02:01.588Z,102007.40
2023-03-04T02:04:35.454Z,102000.14
2023-03-04T02:07:04.893Z,102004.98
2023-03-04T02:09:34.214Z,101999.33
2023-03-04T02:12:02.444Z,102002.98
2023-03-04T02:14:30.486Z,101993.27
2023-03-04T02:16:58.360Z,101992.88
2023-03-04T02:19:25.870Z,101996.52
2023-03-04T02:21:53.704Z,101999.33
2023-03-04T02:24:32.392Z,101989.65
2023-03-04T02:27:00.662Z,101990.46
2023-03-04T02:29:29.292Z,101993.70
2023-03-04T02:31:57.297Z,101983.20
2023-03-04T02:34:30.953Z,101991.28
2023-03-04T02:36:58.899Z,101978.79
2023-03-04T02:39:33.330Z,101992.88
2023-03-04T02:42:02.775Z,101981.60
2023-03-04T02:44:33.208Z,101981.99
2023-03-04T02:47:01.049Z,101979.18
2023-03-04T02:49:31.340Z,101979.57
2023-03-04T02:52:07.151Z,101979.97
2023-03-04T02:54:35.142Z,101979.18
2023-03-04T02:57:05.108Z,101984.84
2023-03-04T02:59:33.103Z,101979.18
2023-03-04T03:02:01.020Z,101981.99
2023-03-04T03:04:29.345Z,101973.91
2023-03-04T03:06:57.202Z,101986.02
2023-03-04T03:09:24.845Z,101980.78
2023-03-04T03:11:52.610Z,101975.13
2023-03-04T03:14:20.383Z,101973.49
2023-03-04T03:16:48.030Z,101969.90
2023-03-04T03:19:15.791Z,101973.49
2023-03-04T03:21:43.512Z,101973.49
2023-03-04T03:24:11.192Z,101969.90
2023-03-04T03:26:40.983Z,101979.15
2023-03-04T03:29:08.725Z,101979.97
2023-03-04T03:31:36.460Z,101982.81
2023-03-04T03:34:04.131Z,101979.15
2023-03-04T03:36:32.038Z,101978.76
2023-03-04T03:38:59.882Z,101979.97
2023-03-04T03:41:27.534Z,101982.42
2023-03-04T03:43:55.183Z,101978.37
2023-03-04T03:46:22.806Z,101985.23
2023-03-04T03:48:50.448Z,101978.37
2023-03-04T03:51:18.112Z,101990.46
2023-03-04T03:53:45.851Z,101984.02
2023-03-04T03:56:13.556Z,101984.80
2023-03-04T03:58:41.247Z,101983.59
2023-03-04T04:01:10.323Z,101980.36
2023-03-04T04:03:38.032Z,101982.38
2023-03-04T04:06:05.824Z,101983.99
2023-03-04T04:08:34.522Z,101987.23
2023-03-04T04:11:02.193Z,101989.25
2023-03-04T04:13:29.811Z,101983.63
2023-03-04T04:15:57.473Z,101986.44
2023-03-04T04:18:26.888Z,101987.62
2023-03-04T04:20:54.942Z,101991.28
2023-03-04T04:23:22.964Z,101979.97
2023-03-04T04:25:50.734Z,101978.76
2023-03-04T04:28:18.394Z,101982.81
2023-03-04T04:30:46.091Z,101980.78
2023-03-04T04:33:13.754Z,101979.97
2023-03-04T04:35:41.460Z,101986.84
2023-03-04T04:38:09.889Z,101984.84
2023-03-04T04:40:38.211Z,101986.05
2023-03-04T04:43:05.888Z,101989.68
2023-03-04T04:45:33.657Z,101985.66
2023-03-04T04:48:01.420Z,101994.52
2023-03-04T04:50:32.550Z,101991.70
2023-03-04T04:53:00.583Z,101992.10
2023-03-04T04:55:28.934Z,102001.38
2023-03-04T04:57:56.575Z,102001.38
2023-03-04T05:00:24.200Z,101997.76
2023-03-04T05:02:51.947Z,101994.52
2023-03-04T05:05:19.649Z,101993.30
2023-03-04T05:07:47.329Z,102001.77
2023-03-04T05:10:15.052Z,102000.99
2023-03-04T05:12:42.678Z,101999.39
2023-03-04T05:15:10.630Z,101996.55
2023-03-04T05:17:38.363Z,101994.55
2023-03-04T05:20:08.254Z,101992.91
2023-03-04T05:22:36.153Z,101997.33
2023-03-04T05:25:04.656Z,102005.83
2023-03-04T05:27:32.389Z,101998.15
2023-03-04T05:30:03.166Z,102007.86
2023-03-04T05:32:30.854Z,102005.02
2023-03-04T05:34:58.567Z,101998.57
2023-03-04T05:37:26.254Z,102006.65
2023-03-04T05:39:53.871Z,102008.25
2023-03-04T05:42:21.600Z,102007.44
2023-03-04T05:44:49.314Z,102008.25
2023-03-04T05:47:17.333Z,102008.64
2023-03-04T05:49:45.721Z,102009.04
2023-03-04T05:52:13.399Z,102003.80
2023-03-04T05:54:41.073Z,102007.83
2023-03-04T05:57:08.794Z,102013.88
2023-03-04T05:59:36.580Z,102014.70
2023-03-04T06:02:04.389Z,102016.72
2023-03-04T06:04:32.253Z,102019.14
2023-03-04T06:06:59.906Z,102015.51
2023-03-04T06:09:27.613Z,102021.17
2023-03-04T06:11:55.285Z,102025.19
2023-03-04T06:14:23.098Z,102027.61
2023-03-04T06:16:50.877Z,102032.09
2023-03-04T06:19:18.684Z,102040.56
2023-03-04T06:21:46.388Z,102042.98
2023-03-04T06:24:14.283Z,102049.03
2023-03-04T06:26:41.950Z,102050.63
2023-03-04T06:29:09.657Z,102049.42
2023-03-04T06:31:37.391Z,102050.24
2023-03-04T06:34:05.125Z,102055.47
2023-03-04T06:36:32.769Z,102057.50
2023-03-04T06:39:00.444Z,102062.34
2023-03-04T06:41:28.125Z,102067.21
2023-03-04T06:43:56.039Z,102069.59
2023-03-04T06:46:24.261Z,102069.59
2023-03-04T06:48:52.033Z,102065.97
2023-03-04T06:51:20.823Z,102062.77
2023-03-04T06:53:48.555Z,102066.36
2023-03-04T06:56:19.519Z,102068.81
2023-03-04T06:58:47.588Z,102069.20
2023-03-04T07:01:27.241Z,102077.67
2023-03-04T07:03:56.273Z,102077.28
2023-03-04T07:06:27.179Z,102078.10
2023-03-04T07:08:55.883Z,102082.55
2023-03-04T07:11:24.461Z,102083.33
2023-03-04T07:13:52.696Z,102082.94
2023-03-04T07:16:23.278Z,102083.37
2023-03-04T07:18:51.498Z,102078.10
2023-03-04T07:21:19.965Z,102077.70
2023-03-04T07:23:48.053Z,102089.80
2023-03-04T07:26:15.720Z,102086.14
2023-03-04T07:28:44.500Z,102088.59
2023-03-04T07:31:12.893Z,102086.99
2023-03-04T07:33:40.590Z,102092.23
2023-03-04T07:36:08.466Z,102091.02
2023-03-04T07:38:36.247Z,102080.95
2023-03-04T07:41:04.489Z,102096.25
2023-03-04T07:43:32.220Z,102091.80
2023-03-04T07:46:02.863Z,102089.80
2023-03-04T07:48:30.762Z,102095.89
2023-03-04T07:51:21.830Z,102104.33
2023-03-04T07:53:55.390Z,102093.05
2023-03-04T07:56:26.311Z,102102.72
2023-03-04T07:58:57.449Z,102098.30
2023-03-04T08:01:28.915Z,102100.30
2023-03-04T08:03:56.781Z,102095.86
2023-03-04T08:06:25.301Z,102101.52
2023-03-04T08:09:01.241Z,102099.88
2023-03-04T08:11:30.523Z,102100.34
2023-03-04T08:13:58.401Z,102097.49
2023-03-04T08:16:27.040Z,102103.15
2023-03-04T08:18:57.295Z,102103.97
2023-03-04T08:21:26.570Z,102096.25
2023-03-04T08:23:55.044Z,102094.65
2023-03-04T08:26:26.645Z,102105.14
2023-03-04T08:28:55.819Z,102100.27
2023-03-04T08:31:23.903Z,102102.33
2023-03-04T08:33:52.432Z,102106.32
2023-03-04T08:36:20.400Z,102098.66
2023-03-04T08:38:48.154Z,102102.27
2023-03-04T08:41:16.708Z,102098.63
2023-03-04T08:43:45.108Z,102103.05
2023-03-04T08:46:13.271Z,102092.95
2023-03-04T08:48:41.019Z,102093.73
2023-03-04T08:51:11.516Z,102096.54
2023-03-04T08:53:39.910Z,102103.02
2023-03-04T08:56:08.354Z,102094.52
2023-03-04T08:58:36.293Z,102104.23
2023-03-04T09:01:05.393Z,102100.99
2023-03-04T09:03:33.258Z,102102.16
2023-03-04T09:06:04.016Z,102109.82
2023-03-04T09:08:32.606Z,102104.98
2023-03-04T09:11:00.861Z,102103.73
2023-03-04T09:13:30.642Z,102100.04
2023-03-04T09:15:59.376Z,102095.17
2023-03-04T09:18:28.078Z,102094.77
2023-03-04T09:20:56.096Z,102094.74
2023-03-04T09:23:24.044Z,102088.17
2023-03-04T09:25:52.056Z,102091.37
2023-03-04T09:28:20.821Z,102087.26
2023-03-04T09:30:48.695Z,102085.30
2023-03-04T09:33:16.415Z,102087.26
2023-03-04T09:35:44.625Z,102079.15
2023-03-04T09:38:12.320Z,102073.45
2023-03-04T09:40:49.624Z,102077.02
2023-03-04T09:43:31.247Z,102073.75
2023-03-04T09:46:04.022Z,102082.16
2023-03-04T09:48:45.952Z,102074.37
2023-03-04T09:51:41.151Z,102077.64
2023-03-04T09:54:28.880Z,102076.30
2023-03-04T09:57:07.847Z,102083.95
2023-03-04T09:59:48.266Z,102083.10
2023-03-04T10:02:33.747Z,102077.77
2023-03-04T10:05:06.987Z,102074.50
2023-03-04T10:07:39.662Z,102068.75
2023-03-04T10:10:17.925Z,102061.81
2023-03-04T10:12:50.715Z,102066.59
2023-03-04T10:15:24.528Z,102068.95
2023-03-04T10:18:01.751Z,102066.46
2023-03-04T10:20:45.267Z,102067.60
2023-03-04T10:23:19.556Z,102065.05
2023-03-04T10:25:48.051Z,102066.20
2023-03-04T10:28:21.617Z,102062.05
2023-03-04T10:31:13.106Z,102057.50
2023-03-04T10:33:42.456Z,102050.92
2023-03-04T10:36:22.786Z,102057.34
2023-03-04T10:38:54.962Z,102046.71
2023-03-04T10:41:27.158Z,102048.63
2023-03-04T10:44:03.659Z,102050.56
2023-03-04T10:46:32.936Z,102051.25
2023-03-04T10:49:01.115Z,102044.68
2023-03-04T10:51:30.617Z,102032.38
2023-03-04T10:54:17.730Z,102037.65
2023-03-04T10:56:57.103Z,102030.29
2023-03-04T10:59:34.794Z,102016.46
2023-03-04T11:02:15.340Z,102018.48
2023-03-04T11:04:43.167Z,102027.02
2023-03-04T11:07:12.182Z,102023.33
2023-03-04T11:09:41.385Z,102025.65
2023-03-04T11:12:17.946Z,102018.26
2023-03-04T11:14:54.937Z,102024.73
2023-03-04T11:17:41.785Z,102016.55
2023-03-04T11:20:27.839Z,102007.60
2023-03-04T11:22:57.995Z,102012.41
2023-03-04T11:25:33.871Z,102007.47
2023-03-04T11:28:08.402Z,102005.38
2023-03-04T11:30:56.224Z,101995.89
2023-03-04T11:33:37.272Z,101997.00
2023-03-04T11:36:23.543Z,101993.63
2023-03-04T11:38:52.988Z,101989.02
2023-03-04T11:41:24.787Z,102001.94
2023-03-04T11:43:52.626Z,101992.88
2023-03-04T11:46:50.636Z,101993.70
2023-03-04T11:49:33.551Z,101983.99
2023-03-04T11:52:50.854Z,101978.13
2023-03-04T11:55:44.233Z,101979.67
2023-03-04T11:58:30.393Z,101971.92
2023-03-04T12:01:16.325Z,101966.43
2023-03-04T12:04:06.149Z,101972.12
2023-03-04T12:06:45.208Z,101964.86
2023-03-04T12:09:34.268Z,101956.78
2023-03-04T12:12:28.209Z,101960.41
2023-03-04T12:14:55.807Z,101953.64
2023-03-04T12:17:36.335Z,101942.66
2023-03-04T12:20:22.967Z,101942.16
2023-03-04T12:23:12.886Z,101932.35
2023-03-04T12:26:11.255Z,101928.30
2023-03-04T12:28:41.682Z,101923.04
2023-03-04T12:31:27.493Z,101921.01
2023-03-04T12:34:10.040Z,101911.10
2023-03-04T12:36:43.246Z,101911.00
2023-03-04T12:39:20.418Z,101903.12
2023-03-04T12:41:50.766Z,101905.51
2023-03-04T12:44:20.338Z,101903.22
2023-03-04T12:46:51.223Z,101895.34
2023-03-04T12:49:35.833Z,101894.65
2023-03-04T12:52:40.583Z,101892.00
2023-03-04T12:55:18.419Z,101888.80
2023-03-04T12:57:47.060Z,101885.33
2023-03-04T13:00:48.081Z,101875.49
2023-03-04T13:03:24.659Z,101872.41
2023-03-04T13:06:05.224Z,101869.84
2023-03-04T13:09:08.477Z,101868.03
2023-03-04T13:12:07.512Z,101858.98
2023-03-04T13:14:35.849Z,101865.74
2023-03-04T13:17:39.888Z,101853.65
2023-03-04T13:20:22.200Z,101843.18
2023-03-04T13:22:59.905Z,101841.48
2023-03-04T13:25:43.423Z,101834.19
2023-03-04T13:28:11.045Z,101837.23
2023-03-04T13:30:41.418Z,101835.86
2023-03-04T13:33:12.212Z,101838.73
2023-03-04T13:36:03.005Z,101832.36
2023-03-04T13:38:35.422Z,101829.02
2023-03-04T13:41:06.124Z,101823.63
2023-03-04T13:43:41.134Z,101823.82
2023-03-04T13:46:21.188Z,101824.77
2023-03-04T13:48:51.800Z,101822.74
2023-03-04T13:51:44.148Z,101812.02
2023-03-04T13:54:16.988Z,101811.33
2023-03-04T13:56:48.910Z,101811.49
2023-03-04T13:59:43.282Z,101815.23
2023-03-04T14:02:23.203Z,101810.71
2023-03-04T14:05:02.356Z,101826.54
2023-03-04T14:07:38.154Z,101819.57
2023-03-04T14:10:24.358Z,101818.88
2023-03-04T14:12:59.120Z,101821.73
2023-03-04T14:15:31.756Z,101814.70
2023-03-04T14:18:02.174Z,101812.97
2023-03-04T14:20:35.159Z,101815.02
2023-03-04T14:23:05.814Z,101809.60
2023-03-04T14:25:36.926Z,101803.74
2023-03-04T14:28:13.443Z,101801.45
2023-03-04T14:30:52.501Z,101796.78
2023-03-04T14:33:24.220Z,101792.07
2023-03-04T14:35:54.924Z,101788.34
2023-03-04T14:38:27.474Z,101785.47
2023-03-04T14:41:04.246Z,101794.55
2023-03-04T14:43:38.411Z,101783.34
2023-03-04T14:46:13.509Z,101774.09
2023-03-04T14:48:47.085Z,101770.26
2023-03-04T14:51:37.401Z,101777.65
2023-03-04T14:54:05.686Z,101775.33
2023-03-04T14:56:36.711Z,101766.44
2023-03-04T14:59:04.530Z,101763.95
2023-03-04T15:01:36.777Z,101768.49
2023-03-04T15:04:09.057Z,101760.74
2023-03-04T15:06:40.706Z,101757.90
2023-03-04T15:09:29.180Z,101757.48
2023-03-04T15:12:07.540Z,101746.48
2023-03-04T15:14:55.323Z,101744.55
2023-03-04T15:17:33.964Z,101750.25
2023-03-04T15:20:07.441Z,101741.26
2023-03-04T15:22:36.822Z,101740.02
2023-03-04T15:25:04.988Z,101733.08
2023-03-04T15:27:32.809Z,101732.27
2023-03-04T15:30:02.714Z,101733.51
2023-03-04T15:32:31.043Z,101729.48
2023-03-04T15:34:58.834Z,101738.93
2023-03-04T15:37:29.867Z,101739.30
2023-03-04T15:39:59.095Z,101740.90
2023-03-04T15:42:26.944Z,101735.66
2023-03-04T15:44:54.680Z,101738.87
2023-03-04T15:47:22.373Z,101738.87
2023-03-04T15:49:50.137Z,101741.35
2023-03-04T15:52:22.502Z,101738.51
2023-03-04T15:54:51.139Z,101746.23
2023-03-04T15:57:25.981Z,101746.32
2023-03-04T15:59:54.602Z,101737.53
2023-03-04T16:02:25.028Z,101734.78
2023-03-04T16:04:52.758Z,101743.41
2023-03-04T16:07:30.836Z,101734.98
2023-03-04T16:10:03.424Z,101740.30
2023-03-04T16:12:31.463Z,101735.14
2023-03-04T16:14:59.316Z,101740.47
2023-03-04T16:17:27.076Z,101740.90
2023-03-04T16:19:54.742Z,101739.39
2023-03-04T16:22:30.386Z,101738.25
2023-03-04T16:24:58.130Z,101739.95
2023-03-04T16:27:27.735Z,101738.41
2023-03-04T16:29:55.441Z,101734.42
2023-03-04T16:32:23.221Z,101735.66
2023-03-04T16:34:51.513Z,101743.51
2023-03-04T16:37:21.412Z,101735.92
2023-03-04T16:39:50.501Z,101732.00
2023-03-04T16:42:23.089Z,101730.46
2023-03-04T16:44:51.316Z,101728.96
2023-03-04T16:47:19.123Z,101726.28
2023-03-04T16:49:49.843Z,101732.85
2023-03-04T16:52:33.138Z,101734.52
2023-03-04T16:55:01.532Z,101741.09
2023-03-04T16:57:29.789Z,101733.18
2023-03-04T16:59:57.690Z,101736.45
2023-03-04T17:02:29.084Z,101734.84
2023-03-04T17:04:57.672Z,101727.20
2023-03-04T17:07:25.399Z,101727.20
2023-03-04T17:09:53.150Z,101735.37
2023-03-04T17:12:20.893Z,101731.80
2023-03-04T17:14:48.647Z,101728.57
2023-03-04T17:17:18.387Z,101729.35
2023-03-04T17:19:46.387Z,101735.50
2023-03-04T17:22:14.181Z,101738.77
2023-03-04T17:24:41.876Z,101744.46
2023-03-04T17:27:09.852Z,101746.06
2023-03-04T17:29:37.594Z,101744.91
2023-03-04T17:32:05.614Z,101744.91
2023-03-04T17:34:33.771Z,101747.77
2023-03-04T17:37:01.535Z,101743.74
2023-03-04T17:39:29.286Z,101755.19
2023-03-04T17:41:57.824Z,101758.91
2023-03-04T17:44:25.666Z,101759.34
2023-03-04T17:46:53.427Z,101765.45
2023-03-04T17:49:21.371Z,101780.92
2023-03-04T17:51:49.282Z,101784.19
2023-03-04T17:54:17.574Z,101779.32
2023-03-04T17:56:45.626Z,101789.00
2023-03-04T17:59:16.161Z,101785.73
2023-03-04T18:01:46.218Z,101780.76
2023-03-04T18:04:15.637Z,101786.80
2023-03-04T18:06:44.438Z,101787.98
2023-03-04T18:09:12.214Z,101793.61
2023-03-04T18:11:41.656Z,101792.73
2023-03-04T18:14:09.409Z,101797.56
2023-03-04T18:16:37.143Z,101804.43
2023-03-04T18:19:06.832Z,101807.21
2023-03-04T18:21:34.636Z,101807.15
2023-03-04T18:24:02.886Z,101819.21
2023-03-04T18:26:30.843Z,101819.57
2023-03-04T18:28:59.086Z,101823.23
2023-03-04T18:31:31.702Z,101825.66
2023-03-04T18:34:01.862Z,101831.70
2023-03-04T18:36:30.688Z,101834.55
2023-03-04T18:39:00.468Z,101833.73
2023-03-04T18:41:28.489Z,101836.22
2023-03-04T18:43:56.529Z,101838.70
2023-03-04T18:46:43.830Z,101838.77
2023-03-04T18:49:12.908Z,101843.80
2023-03-04T18:51:40.706Z,101845.47
2023-03-04T18:54:08.490Z,101853.65
2023-03-04T18:56:49.944Z,101855.41
2023-03-04T18:59:25.510Z,101857.30
2023-03-04T19:01:54.267Z,101861.49
2023-03-04T19:04:27.466Z,101863.33
2023-03-04T19:06:55.495Z,101870.42
2023-03-04T19:09:23.246Z,101877.09
2023-03-04T19:11:50.939Z,101889.42
2023-03-04T19:14:18.707Z,101885.62
2023-03-04T19:16:46.423Z,101885.40
2023-03-04T19:19:14.376Z,101897.79
2023-03-04T19:21:43.018Z,101893.15
2023-03-04T19:24:10.716Z,101896.98
2023-03-04T19:26:38.417Z,101907.24
2023-03-04T19:29:07.453Z,101915.48
2023-03-04T19:31:35.342Z,101902.66
2023-03-04T19:34:03.016Z,101918.16
2023-03-04T19:36:31.749Z,101921.50
2023-03-04T19:39:00.093Z,101927.29
2023-03-04T19:41:28.161Z,101933.01
2023-03-04T19:43:55.869Z,101927.02
2023-03-04T19:46:23.658Z,101938.83
2023-03-04T19:48:51.513Z,101936.41
2023-03-04T19:51:22.005Z,101948.21
2023-03-04T19:53:51.953Z,101950.27
2023-03-04T19:56:21.277Z,101952.66
2023-03-04T19:58:49.585Z,101953.48
2023-03-04T20:01:31.178Z,101952.70
2023-03-04T20:04:04.526Z,101960.41
2023-03-04T20:06:32.745Z,101959.20
2023-03-04T20:09:01.544Z,101963.68
2023-03-04T20:11:30.465Z,101962.08
2023-03-04T20:13:59.697Z,101963.32
2023-03-04T20:16:28.280Z,101971.04
2023-03-04T20:18:58.980Z,101967.45
2023-03-04T20:21:33.112Z,101985.66
2023-03-04T20:24:02.586Z,101984.12
2023-03-04T20:26:31.307Z,101997.49
2023-03-04T20:28:59.749Z,101993.44
2023-03-04T20:31:30.804Z,101996.68
2023-03-04T20:34:00.189Z,101988.63
2023-03-04T20:36:30.068Z,101983.37
2023-03-04T20:39:02.569Z,101987.78
2023-03-04T20:41:32.245Z,101989.41
2023-03-04T20:44:00.086Z,101989.84
2023-03-04T20:46:35.858Z,101982.95
2023-03-04T20:49:07.210Z,101994.23
2023-03-04T20:51:35.944Z,101991.84
2023-03-04T20:54:04.728Z,101996.64
2023-03-04T20:56:32.760Z,101982.52
2023-03-04T20:59:02.814Z,101986.15
2023-03-04T21:01:32.153Z,101993.44
2023-03-04T21:04:01.075Z,101992.20
2023-03-04T21:06:32.210Z,101984.09
2023-03-04T21:09:09.358Z,101986.08
2023-03-04T21:11:41.658Z,101992.55
2023-03-04T21:14:15.384Z,101982.81
2023-03-04T21:16:44.220Z,101990.89
2023-03-04T21:19:17.273Z,101997.33
2023-03-04T21:21:46.118Z,101988.80
2023-03-04T21:24:16.730Z,101989.58
2023-03-04T21:26:46.398Z,101985.91
2023-03-04T21:29:18.819Z,101983.86
2023-03-04T21:31:52.882Z,101984.71
2023-03-04T21:34:34.715Z,101990.40
2023-03-04T21:37:03.433Z,101984.31
2023-03-04T21:39:32.023Z,101986.73
2023-03-04T21:42:00.886Z,101987.16
2023-03-04T21:44:45.313Z,101990.01
2023-03-04T21:47:16.121Z,101981.50
2023-03-04T21:49:43.877Z,101973.46
2023-03-04T21:52:11.579Z,101978.33
2023-03-04T21:54:39.326Z,101969.08
2023-03-04T21:57:06.991Z,101975.55
2023-03-04T21:59:34.723Z,101969.11
2023-03-04T22:02:03.053Z,101975.98
2023-03-04T22:04:30.941Z,101977.61
2023-03-04T22:06:58.647Z,101978.40
2023-03-04T22:09:26.559Z,101982.02
2023-03-04T22:11:54.268Z,101975.98
2023-03-04T22:14:22.119Z,101973.98
2023-03-04T22:16:55.818Z,101963.42
2023-03-04T22:19:31.295Z,101970.29
2023-03-04T22:22:00.200Z,101964.23
2023-03-04T22:24:28.001Z,101950.47
2023-03-04T22:26:57.921Z,101951.26
2023-03-04T22:29:25.804Z,101956.95
2023-03-04T22:31:53.484Z,101955.31
2023-03-04T22:34:21.201Z,101954.91
2023-03-04T22:36:50.369Z,101951.68
2023-03-04T22:39:24.051Z,101948.02
2023-03-04T22:41:51.832Z,101935.88
2023-03-04T22:44:19.988Z,101936.31
2023-03-04T22:46:47.730Z,101941.97
2023-03-04T22:49:15.877Z,101935.49
2023-03-04T22:51:45.399Z,101939.13
2023-03-04T22:54:18.401Z,101941.15
2023-03-04T22:56:46.622Z,101943.99
2023-03-04T22:59:15.106Z,101948.02
2023-03-04T23:01:43.053Z,101943.96
2023-03-04T23:04:10.875Z,101940.76
2023-03-04T23:06:38.795Z,101936.70
2023-03-04T23:09:06.743Z,101940.76
2023-03-04T23:11:39.937Z,101939.13
2023-03-04T23:14:09.128Z,101932.62
2023-03-04T23:16:42.071Z,101934.25
2023-03-04T23:19:14.051Z,101929.77
2023-03-04T23:21:42.422Z,101930.52
2023-03-04T23:24:12.305Z,101936.21
2023-03-04T23:26:41.650Z,101926.93
2023-03-04T23:29:12.554Z,101928.10
2023-03-04T23:31:40.296Z,101924.90
2023-03-04T23:34:08.160Z,101922.09
2023-03-04T23:36:37.357Z,101916.01
2023-03-04T23:39:07.599Z,101912.34
2023-03-04T23:41:36.650Z,101917.21
2023-03-04T23:44:05.181Z,101912.41
2023-03-04T23:46:32.987Z,101911.16
2023-03-04T23:49:00.655Z,101902.70
2023-03-04T23:51:30.347Z,101907.14
2023-03-04T23:53:59.341Z,101914.01
2023-03-04T23:56:30.170Z,101911.63
2023-03-04T23:58:59.434Z,101918.06
